EWG12JS LOWG-EDDK
Flight info
| Callsign | EWG12JS |
|---|---|
| Flight time | N/A |
| Altitude | 34000 |
| Route | ABIRI DCT ERKIR/N0436F360 DCT VEKIR DCT UMDAS T844 ASKIK/N0375F240 T840 GULKO GULKO1B |
| Aircraft | A319/M-SDE3FGHIRWY/LB1 |
Departure
| Time | 2026-05-04 19:17 |
|---|---|
| Airport | Graz Airport (LOWG) |
Arrival
| Time | N/A |
|---|---|
| Airport | Cologne Bonn Airport (EDDK) |
| Time | Latitude | Longitude | Altitude | Speed | Heading |
|---|---|---|---|---|---|
| 2026-05-04 18:48 | 46.99779 | 15.44407 | 1113 ft | 0 kts | 169° |
| 2026-05-04 19:09 | 46.99795 | 15.44403 | 1110 ft | 2 kts | 172° |
| 2026-05-04 19:09 | 46.99811 | 15.44399 | 1108 ft | 2 kts | 173° |
| 2026-05-04 19:09 | 46.99828 | 15.44398 | 1116 ft | 2 kts | 214° |
| 2026-05-04 19:10 | 46.99834 | 15.44411 | 1116 ft | 1 kts | 256° |
| 2026-05-04 19:10 | 46.99834 | 15.44412 | 1116 ft | 0 kts | 256° |
| 2026-05-04 19:12 | 46.99834 | 15.44411 | 1116 ft | 1 kts | 256° |
| 2026-05-04 19:12 | 46.99830 | 15.44382 | 1113 ft | 3 kts | 259° |
| 2026-05-04 19:13 | 46.99825 | 15.44341 | 1116 ft | 6 kts | 259° |
| 2026-05-04 19:13 | 46.99816 | 15.44267 | 1112 ft | 7 kts | 259° |
| 2026-05-04 19:13 | 46.99816 | 15.44189 | 1112 ft | 8 kts | 293° |
| 2026-05-04 19:13 | 46.99872 | 15.44153 | 1111 ft | 10 kts | 349° |
| 2026-05-04 19:14 | 46.99932 | 15.44117 | 1108 ft | 10 kts | 305° |
| 2026-05-04 19:14 | 46.99930 | 15.44020 | 1106 ft | 8 kts | 257° |
| 2026-05-04 19:14 | 46.99918 | 15.43975 | 1105 ft | 0 kts | 242° |
| 2026-05-04 19:15 | 46.99908 | 15.43957 | 1108 ft | 8 kts | 229° |
| 2026-05-04 19:16 | 46.99824 | 15.43902 | 1108 ft | 17 kts | 195° |
| 2026-05-04 19:16 | 46.99710 | 15.43843 | 1103 ft | 18 kts | 211° |
| 2026-05-04 19:16 | 46.99596 | 15.43831 | 1108 ft | 19 kts | 171° |
| 2026-05-04 19:16 | 46.99221 | 15.43933 | 1112 ft | 90 kts | 169° |
| 2026-05-04 19:17 | 46.98392 | 15.44160 | 1119 ft | 148 kts | 169° |
| 2026-05-04 19:17 | 46.97376 | 15.44405 | 1747 ft | 144 kts | 171° |
| 2026-05-04 19:17 | 46.96389 | 15.44660 | 2364 ft | 149 kts | 175° |
| 2026-05-04 19:17 | 46.95244 | 15.44944 | 2558 ft | 183 kts | 174° |
| 2026-05-04 19:18 | 46.93913 | 15.45126 | 2992 ft | 200 kts | 194° |
| 2026-05-04 19:18 | 46.92656 | 15.44271 | 3732 ft | 202 kts | 216° |
| 2026-05-04 19:18 | 46.91530 | 15.43023 | 4532 ft | 205 kts | 221° |
| 2026-05-04 19:18 | 46.90441 | 15.41704 | 5323 ft | 208 kts | 221° |
| 2026-05-04 19:19 | 46.89320 | 15.40342 | 6149 ft | 211 kts | 220° |
| 2026-05-04 19:19 | 46.88173 | 15.38979 | 6912 ft | 214 kts | 219° |
| 2026-05-04 19:19 | 46.87109 | 15.37448 | 7644 ft | 218 kts | 236° |
| 2026-05-04 19:19 | 46.86477 | 15.35344 | 8094 ft | 241 kts | 258° |
| 2026-05-04 19:20 | 46.86642 | 15.32795 | 8462 ft | 270 kts | 290° |
| 2026-05-04 19:20 | 46.87533 | 15.30291 | 9120 ft | 282 kts | 297° |
| 2026-05-04 19:20 | 46.88486 | 15.27793 | 9951 ft | 288 kts | 297° |
| 2026-05-04 19:20 | 46.89487 | 15.25177 | 10429 ft | 306 kts | 295° |
| 2026-05-04 19:21 | 46.90554 | 15.22371 | 10872 ft | 322 kts | 295° |
| 2026-05-04 19:21 | 46.91653 | 15.19478 | 11552 ft | 328 kts | 296° |
| 2026-05-04 19:21 | 46.92766 | 15.16534 | 12280 ft | 333 kts | 296° |
| 2026-05-04 19:21 | 46.93891 | 15.13560 | 13097 ft | 336 kts | 295° |
| 2026-05-04 19:22 | 46.95026 | 15.10555 | 13874 ft | 339 kts | 295° |
| 2026-05-04 19:22 | 46.96173 | 15.07513 | 14569 ft | 343 kts | 295° |
| 2026-05-04 19:22 | 46.97327 | 15.04437 | 15252 ft | 347 kts | 295° |
| 2026-05-04 19:22 | 46.98493 | 15.01317 | 15888 ft | 352 kts | 296° |
| 2026-05-04 19:23 | 46.99661 | 14.98195 | 16513 ft | 356 kts | 295° |
| 2026-05-04 19:23 | 47.00860 | 14.94995 | 17158 ft | 361 kts | 296° |
| 2026-05-04 19:23 | 47.02074 | 14.91757 | 17823 ft | 364 kts | 296° |
| 2026-05-04 19:23 | 47.03300 | 14.88477 | 18393 ft | 370 kts | 296° |
| 2026-05-04 19:24 | 47.04538 | 14.85156 | 18935 ft | 373 kts | 296° |
| 2026-05-04 19:24 | 47.05783 | 14.81810 | 19573 ft | 375 kts | 296° |
| 2026-05-04 19:24 | 47.07033 | 14.78440 | 20187 ft | 377 kts | 297° |
| 2026-05-04 19:24 | 47.08290 | 14.75045 | 20796 ft | 380 kts | 297° |
| 2026-05-04 19:25 | 47.09558 | 14.71621 | 21399 ft | 383 kts | 297° |
| 2026-05-04 19:25 | 47.10818 | 14.68226 | 21990 ft | 385 kts | 297° |
| 2026-05-04 19:25 | 47.12117 | 14.64721 | 22649 ft | 386 kts | 297° |
| 2026-05-04 19:25 | 47.13386 | 14.61290 | 23236 ft | 388 kts | 296° |
| 2026-05-04 19:26 | 47.14673 | 14.57803 | 23789 ft | 390 kts | 297° |
| 2026-05-04 19:26 | 47.15969 | 14.54287 | 24190 ft | 395 kts | 297° |
| 2026-05-04 19:26 | 47.17284 | 14.50710 | 24563 ft | 400 kts | 297° |
| 2026-05-04 19:26 | 47.18611 | 14.47099 | 24984 ft | 403 kts | 297° |
| 2026-05-04 19:27 | 47.19946 | 14.43464 | 25424 ft | 405 kts | 297° |
| 2026-05-04 19:27 | 47.21287 | 14.39810 | 25855 ft | 408 kts | 297° |
| 2026-05-04 19:27 | 47.22637 | 14.36126 | 26297 ft | 410 kts | 297° |
| 2026-05-04 19:27 | 47.23974 | 14.32472 | 26715 ft | 412 kts | 297° |
| 2026-05-04 19:28 | 47.25331 | 14.28752 | 27135 ft | 414 kts | 296° |
| 2026-05-04 19:28 | 47.26696 | 14.25003 | 27560 ft | 416 kts | 296° |
| 2026-05-04 19:28 | 47.28068 | 14.21230 | 27977 ft | 419 kts | 296° |
| 2026-05-04 19:28 | 47.29444 | 14.17437 | 28389 ft | 421 kts | 296° |
| 2026-05-04 19:29 | 47.30829 | 14.13617 | 28779 ft | 424 kts | 296° |
| 2026-05-04 19:29 | 47.32219 | 14.09778 | 29178 ft | 426 kts | 296° |
| 2026-05-04 19:29 | 47.33616 | 14.05915 | 29554 ft | 428 kts | 296° |
| 2026-05-04 19:29 | 47.35021 | 14.02033 | 29948 ft | 430 kts | 296° |
| 2026-05-04 19:30 | 47.36435 | 13.98125 | 30296 ft | 433 kts | 296° |
| 2026-05-04 19:30 | 47.37836 | 13.94248 | 30584 ft | 435 kts | 296° |
| 2026-05-04 19:30 | 47.39260 | 13.90288 | 30877 ft | 438 kts | 296° |
| 2026-05-04 19:30 | 47.40685 | 13.86312 | 31201 ft | 439 kts | 296° |
| 2026-05-04 19:31 | 47.42113 | 13.82316 | 31525 ft | 441 kts | 295° |
| 2026-05-04 19:31 | 47.43546 | 13.78312 | 31949 ft | 440 kts | 295° |
| 2026-05-04 19:31 | 47.44972 | 13.74328 | 32406 ft | 438 kts | 295° |
| 2026-05-04 19:31 | 47.46392 | 13.70361 | 32862 ft | 436 kts | 295° |
| 2026-05-04 19:32 | 47.47805 | 13.66400 | 33333 ft | 435 kts | 295° |
| 2026-05-04 19:32 | 47.49211 | 13.62451 | 33773 ft | 433 kts | 295° |
| 2026-05-04 19:32 | 47.50612 | 13.58506 | 33931 ft | 432 kts | 295° |
| 2026-05-04 19:32 | 47.51972 | 13.54678 | 33956 ft | 421 kts | 295° |
| 2026-05-04 19:33 | 47.53323 | 13.50868 | 33955 ft | 416 kts | 295° |
| 2026-05-04 19:33 | 47.55998 | 13.43299 | 33949 ft | 414 kts | 294° |
| 2026-05-04 19:34 | 47.58664 | 13.35732 | 33948 ft | 414 kts | 294° |
| 2026-05-04 19:34 | 47.61324 | 13.28167 | 33944 ft | 414 kts | 294° |
| 2026-05-04 19:35 | 47.63983 | 13.20596 | 33928 ft | 414 kts | 294° |
| 2026-05-04 19:35 | 47.66616 | 13.13077 | 33924 ft | 414 kts | 294° |
| 2026-05-04 19:36 | 47.69254 | 13.05490 | 33920 ft | 414 kts | 294° |
| 2026-05-04 19:36 | 47.71892 | 12.97886 | 33909 ft | 414 kts | 294° |
| 2026-05-04 19:37 | 47.74524 | 12.90281 | 33909 ft | 414 kts | 294° |
| 2026-05-04 19:37 | 47.77160 | 12.82666 | 33910 ft | 414 kts | 294° |
| 2026-05-04 19:38 | 47.79771 | 12.75092 | 33914 ft | 414 kts | 294° |
| 2026-05-04 19:38 | 47.82397 | 12.67456 | 33908 ft | 415 kts | 294° |
| 2026-05-04 19:39 | 47.85018 | 12.59802 | 33907 ft | 416 kts | 294° |
| 2026-05-04 19:39 | 47.87640 | 12.52122 | 33907 ft | 416 kts | 294° |
| 2026-05-04 19:40 | 47.90253 | 12.44439 | 33911 ft | 416 kts | 294° |
| 2026-05-04 19:40 | 47.92851 | 12.36788 | 33917 ft | 416 kts | 294° |
| 2026-05-04 19:41 | 47.95453 | 12.29085 | 33921 ft | 416 kts | 293° |
| 2026-05-04 19:41 | 47.98058 | 12.21368 | 33914 ft | 416 kts | 293° |
| 2026-05-04 19:42 | 48.00661 | 12.13653 | 33927 ft | 416 kts | 293° |
| 2026-05-04 19:42 | 48.03255 | 12.05927 | 33920 ft | 416 kts | 293° |
| 2026-05-04 19:43 | 48.05823 | 11.98241 | 33940 ft | 416 kts | 294° |
| 2026-05-04 19:43 | 48.08399 | 11.90501 | 33934 ft | 416 kts | 293° |
| 2026-05-04 19:44 | 48.10973 | 11.82748 | 33933 ft | 416 kts | 293° |
| 2026-05-04 19:44 | 48.13543 | 11.74998 | 33933 ft | 416 kts | 293° |
| 2026-05-04 19:45 | 48.16113 | 11.67231 | 33939 ft | 416 kts | 293° |
| 2026-05-04 19:45 | 48.18675 | 11.59461 | 33947 ft | 416 kts | 293° |
| 2026-05-04 19:46 | 48.21211 | 11.51726 | 33956 ft | 417 kts | 293° |
| 2026-05-04 19:46 | 48.23760 | 11.43923 | 33953 ft | 417 kts | 293° |
| 2026-05-04 19:47 | 48.26315 | 11.36111 | 33952 ft | 417 kts | 293° |
| 2026-05-04 19:47 | 48.28865 | 11.28283 | 33947 ft | 417 kts | 293° |
| 2026-05-04 19:48 | 48.31409 | 11.20448 | 33951 ft | 418 kts | 293° |
| 2026-05-04 19:48 | 48.33933 | 11.12652 | 33944 ft | 418 kts | 293° |
| 2026-05-04 19:49 | 48.36467 | 11.04780 | 33940 ft | 418 kts | 293° |
| 2026-05-04 19:49 | 48.38994 | 10.96908 | 33938 ft | 418 kts | 293° |
| 2026-05-04 19:50 | 48.41516 | 10.89023 | 33937 ft | 418 kts | 293° |
| 2026-05-04 19:50 | 48.44042 | 10.81122 | 33951 ft | 419 kts | 292° |
| 2026-05-04 19:51 | 48.46559 | 10.73220 | 33939 ft | 418 kts | 292° |
| 2026-05-04 19:51 | 48.49050 | 10.65368 | 33943 ft | 418 kts | 292° |
| 2026-05-04 19:52 | 48.51554 | 10.57457 | 33946 ft | 418 kts | 292° |
| 2026-05-04 19:52 | 48.54061 | 10.49533 | 33955 ft | 418 kts | 292° |
| 2026-05-04 19:53 | 48.56553 | 10.41601 | 33982 ft | 418 kts | 291° |
| 2026-05-04 19:53 | 48.59031 | 10.33676 | 33986 ft | 417 kts | 291° |
| 2026-05-04 19:54 | 48.61505 | 10.25761 | 33981 ft | 416 kts | 291° |
| 2026-05-04 19:54 | 48.63958 | 10.17907 | 33990 ft | 416 kts | 291° |
| 2026-05-04 19:55 | 48.66409 | 10.09993 | 33981 ft | 415 kts | 291° |
| 2026-05-04 19:55 | 48.68855 | 10.02084 | 33990 ft | 415 kts | 291° |
| 2026-05-04 19:56 | 48.71302 | 9.94177 | 33989 ft | 415 kts | 292° |
| 2026-05-04 19:56 | 48.74652 | 9.87061 | 33985 ft | 424 kts | 310° |
| 2026-05-04 19:57 | 48.78743 | 9.80636 | 33985 ft | 423 kts | 309° |
| 2026-05-04 19:57 | 48.82813 | 9.74190 | 33984 ft | 423 kts | 309° |
| 2026-05-04 19:58 | 48.86875 | 9.67721 | 33985 ft | 423 kts | 309° |
| 2026-05-04 19:58 | 48.90934 | 9.61243 | 33997 ft | 423 kts | 309° |
| 2026-05-04 19:59 | 48.94964 | 9.54800 | 33981 ft | 424 kts | 309° |
| 2026-05-04 19:59 | 48.99022 | 9.48287 | 33978 ft | 424 kts | 309° |
| 2026-05-04 20:00 | 49.03087 | 9.41772 | 33973 ft | 424 kts | 309° |
| 2026-05-04 20:00 | 49.07156 | 9.35234 | 33970 ft | 425 kts | 309° |
| 2026-05-04 20:01 | 49.11189 | 9.28733 | 33925 ft | 425 kts | 308° |
| 2026-05-04 20:01 | 49.13218 | 9.25460 | 33642 ft | 423 kts | 308° |
| 2026-05-04 20:01 | 49.15232 | 9.22201 | 33225 ft | 421 kts | 308° |
| 2026-05-04 20:01 | 49.17233 | 9.18960 | 32769 ft | 418 kts | 308° |
| 2026-05-04 20:02 | 49.19219 | 9.15739 | 32316 ft | 415 kts | 308° |
| 2026-05-04 20:02 | 49.21188 | 9.12536 | 31871 ft | 412 kts | 308° |
| 2026-05-04 20:02 | 49.23143 | 9.09353 | 31438 ft | 410 kts | 308° |
| 2026-05-04 20:02 | 49.25091 | 9.06182 | 31009 ft | 408 kts | 308° |
| 2026-05-04 20:03 | 49.27026 | 9.03030 | 30588 ft | 405 kts | 308° |
| 2026-05-04 20:03 | 49.28949 | 8.99892 | 30171 ft | 403 kts | 307° |
| 2026-05-04 20:03 | 49.30861 | 8.96756 | 29711 ft | 401 kts | 307° |
| 2026-05-04 20:03 | 49.32737 | 8.93678 | 29239 ft | 399 kts | 308° |
| 2026-05-04 20:04 | 49.34624 | 8.90584 | 28794 ft | 396 kts | 308° |
| 2026-05-04 20:04 | 49.36504 | 8.87510 | 28294 ft | 395 kts | 309° |
| 2026-05-04 20:04 | 49.38576 | 8.84703 | 27771 ft | 400 kts | 319° |
| 2026-05-04 20:04 | 49.40943 | 8.82414 | 27238 ft | 405 kts | 329° |
| 2026-05-04 20:05 | 49.43547 | 8.80728 | 26725 ft | 409 kts | 338° |
| 2026-05-04 20:05 | 49.46288 | 8.79519 | 26224 ft | 410 kts | 341° |
| 2026-05-04 20:05 | 49.49027 | 8.78327 | 25720 ft | 409 kts | 341° |
| 2026-05-04 20:05 | 49.51725 | 8.77143 | 25242 ft | 408 kts | 340° |
| 2026-05-04 20:06 | 49.54447 | 8.75941 | 24764 ft | 407 kts | 340° |
| 2026-05-04 20:06 | 49.57165 | 8.74739 | 24290 ft | 406 kts | 340° |
| 2026-05-04 20:06 | 49.59863 | 8.73547 | 24025 ft | 398 kts | 341° |
| 2026-05-04 20:06 | 49.62481 | 8.72398 | 23981 ft | 385 kts | 340° |
| 2026-05-04 20:07 | 49.65045 | 8.71273 | 23991 ft | 382 kts | 340° |
| 2026-05-04 20:07 | 49.67596 | 8.70146 | 23991 ft | 380 kts | 340° |
| 2026-05-04 20:07 | 49.70135 | 8.69016 | 23987 ft | 380 kts | 340° |
| 2026-05-04 20:07 | 49.72642 | 8.67903 | 23987 ft | 380 kts | 340° |
| 2026-05-04 20:08 | 49.75181 | 8.66780 | 23988 ft | 380 kts | 340° |
| 2026-05-04 20:08 | 49.77719 | 8.65658 | 23986 ft | 380 kts | 340° |
| 2026-05-04 20:08 | 49.80261 | 8.64533 | 23986 ft | 380 kts | 340° |
| 2026-05-04 20:08 | 49.82801 | 8.63407 | 23982 ft | 380 kts | 340° |
| 2026-05-04 20:09 | 49.85339 | 8.62278 | 23979 ft | 380 kts | 340° |
| 2026-05-04 20:09 | 49.87874 | 8.61144 | 23985 ft | 380 kts | 340° |
| 2026-05-04 20:09 | 49.90407 | 8.60012 | 23980 ft | 378 kts | 340° |
| 2026-05-04 20:09 | 49.92941 | 8.58883 | 24002 ft | 378 kts | 340° |
| 2026-05-04 20:10 | 49.95470 | 8.57758 | 24005 ft | 378 kts | 340° |
| 2026-05-04 20:10 | 49.97962 | 8.56648 | 24002 ft | 378 kts | 340° |
| 2026-05-04 20:10 | 50.00491 | 8.55517 | 24002 ft | 378 kts | 340° |
| 2026-05-04 20:10 | 50.03016 | 8.54384 | 24001 ft | 378 kts | 340° |
| 2026-05-04 20:11 | 50.05548 | 8.53243 | 24004 ft | 378 kts | 340° |
| 2026-05-04 20:11 | 50.08050 | 8.52019 | 23901 ft | 377 kts | 338° |
| 2026-05-04 20:11 | 50.10522 | 8.50705 | 23429 ft | 375 kts | 337° |
| 2026-05-04 20:11 | 50.12974 | 8.49345 | 22956 ft | 372 kts | 336° |
| 2026-05-04 20:12 | 50.15400 | 8.47987 | 22524 ft | 369 kts | 336° |
| 2026-05-04 20:12 | 50.17811 | 8.46644 | 22094 ft | 367 kts | 337° |
| 2026-05-04 20:12 | 50.20211 | 8.45324 | 21663 ft | 364 kts | 337° |
| 2026-05-04 20:12 | 50.22595 | 8.44023 | 21234 ft | 362 kts | 337° |
| 2026-05-04 20:13 | 50.24941 | 8.42746 | 20810 ft | 360 kts | 337° |
| 2026-05-04 20:13 | 50.27301 | 8.41466 | 20397 ft | 358 kts | 338° |
| 2026-05-04 20:13 | 50.29579 | 8.39971 | 19988 ft | 352 kts | 328° |
| 2026-05-04 20:13 | 50.31656 | 8.37979 | 19595 ft | 349 kts | 323° |
| 2026-05-04 20:14 | 50.33699 | 8.35948 | 19184 ft | 347 kts | 323° |
| 2026-05-04 20:14 | 50.35729 | 8.33924 | 18790 ft | 346 kts | 324° |
| 2026-05-04 20:14 | 50.37756 | 8.31897 | 18400 ft | 345 kts | 324° |
| 2026-05-04 20:14 | 50.39772 | 8.29877 | 17963 ft | 344 kts | 324° |
| 2026-05-04 20:15 | 50.41782 | 8.27866 | 17570 ft | 341 kts | 324° |
| 2026-05-04 20:15 | 50.43777 | 8.25872 | 17177 ft | 339 kts | 324° |
| 2026-05-04 20:15 | 50.45757 | 8.23892 | 16789 ft | 337 kts | 324° |
| 2026-05-04 20:15 | 50.47698 | 8.21947 | 16415 ft | 335 kts | 324° |
| 2026-05-04 20:16 | 50.49656 | 8.19979 | 16037 ft | 334 kts | 324° |
| 2026-05-04 20:16 | 50.51607 | 8.18016 | 15672 ft | 332 kts | 324° |
| 2026-05-04 20:16 | 50.53552 | 8.16062 | 15295 ft | 331 kts | 324° |
| 2026-05-04 20:16 | 50.55493 | 8.14114 | 14934 ft | 331 kts | 324° |
| 2026-05-04 20:17 | 50.57428 | 8.12169 | 14565 ft | 330 kts | 324° |
| 2026-05-04 20:17 | 50.59362 | 8.10220 | 14196 ft | 329 kts | 324° |
| 2026-05-04 20:17 | 50.61285 | 8.08275 | 13828 ft | 328 kts | 324° |
| 2026-05-04 20:17 | 50.63177 | 8.06354 | 13415 ft | 327 kts | 323° |
| 2026-05-04 20:18 | 50.65077 | 8.04419 | 13036 ft | 325 kts | 323° |
| 2026-05-04 20:18 | 50.66968 | 8.02495 | 12656 ft | 323 kts | 323° |
| 2026-05-04 20:18 | 50.68848 | 8.00585 | 12270 ft | 321 kts | 323° |
| 2026-05-04 20:18 | 50.70704 | 7.98698 | 12066 ft | 313 kts | 323° |
| 2026-05-04 20:19 | 50.72513 | 7.96863 | 11827 ft | 307 kts | 323° |
| 2026-05-04 20:19 | 50.74277 | 7.94991 | 11477 ft | 304 kts | 317° |
| 2026-05-04 20:19 | 50.75791 | 7.92726 | 11125 ft | 298 kts | 306° |
| 2026-05-04 20:19 | 50.76979 | 7.90089 | 10993 ft | 293 kts | 297° |
| 2026-05-04 20:20 | 50.78074 | 7.87359 | 11001 ft | 295 kts | 298° |
| 2026-05-04 20:20 | 50.79171 | 7.84657 | 10824 ft | 296 kts | 298° |
| 2026-05-04 20:20 | 50.80283 | 7.81935 | 10582 ft | 294 kts | 298° |
| 2026-05-04 20:20 | 50.81391 | 7.79226 | 10333 ft | 293 kts | 298° |
| 2026-05-04 20:21 | 50.82491 | 7.76523 | 10093 ft | 292 kts | 298° |
| 2026-05-04 20:21 | 50.83581 | 7.73835 | 9946 ft | 288 kts | 298° |
| 2026-05-04 20:21 | 50.85748 | 7.68482 | 9917 ft | 289 kts | 298° |
| 2026-05-04 20:22 | 50.86829 | 7.65807 | 9792 ft | 288 kts | 298° |
| 2026-05-04 20:22 | 50.87892 | 7.63173 | 9656 ft | 288 kts | 298° |
| 2026-05-04 20:22 | 50.88969 | 7.60502 | 9527 ft | 287 kts | 298° |
| 2026-05-04 20:22 | 50.90041 | 7.57842 | 9395 ft | 287 kts | 298° |
| 2026-05-04 20:23 | 50.91113 | 7.55177 | 9258 ft | 287 kts | 298° |
| 2026-05-04 20:23 | 50.92186 | 7.52511 | 9137 ft | 288 kts | 298° |
| 2026-05-04 20:23 | 50.93263 | 7.49827 | 9001 ft | 288 kts | 298° |